createdAt,value
2023-02-19T00:01:22.026Z,93324.41
2023-02-19T00:03:56.562Z,93321.78
2023-02-19T00:06:24.810Z,93321.69
2023-02-19T00:08:51.471Z,93318.06
2023-02-19T00:11:23.970Z,93319.31
2023-02-19T00:13:53.255Z,93313.84
2023-02-19T00:16:31.296Z,93308.63
2023-02-19T00:18:58.910Z,93323.28
2023-02-19T00:21:25.924Z,93300.44
2023-02-19T00:23:54.722Z,93302.25
2023-02-19T00:26:21.922Z,93306.47
2023-02-19T00:28:50.042Z,93310.56
2023-02-19T00:31:19.525Z,93303.38
2023-02-19T00:33:47.763Z,93293.75
2023-02-19T00:36:14.689Z,93295.53
2023-02-19T00:38:42.746Z,93304.75
2023-02-19T00:41:19.725Z,93299.53
2023-02-19T00:43:48.378Z,93306.00
2023-02-19T00:46:16.445Z,93304.75
2023-02-19T00:48:42.887Z,93305.66
2023-02-19T00:51:09.818Z,93316.25
2023-02-19T00:53:36.559Z,93314.78
2023-02-19T00:56:03.374Z,93315.56
2023-02-19T00:58:30.028Z,93310.56
2023-02-19T01:00:56.907Z,93314.22
2023-02-19T01:03:23.650Z,93307.38
2023-02-19T01:05:51.552Z,93311.69
2023-02-19T01:08:19.148Z,93313.28
2023-02-19T01:10:46.194Z,93300.78
2023-02-19T01:13:12.895Z,93294.75
2023-02-19T01:15:39.385Z,93296.66
2023-02-19T01:18:05.868Z,93273.38
2023-02-19T01:20:32.461Z,93269.31
2023-02-19T01:22:58.995Z,93271.09
2023-02-19T01:25:25.423Z,93284.19
2023-02-19T01:27:51.867Z,93288.16
2023-02-19T01:30:18.524Z,93288.16
2023-02-19T01:32:44.998Z,93298.75
2023-02-19T01:35:11.480Z,93278.38
2023-02-19T01:37:37.918Z,93297.16
2023-02-19T01:40:04.630Z,93263.97
2023-02-19T01:42:31.084Z,93254.63
2023-02-19T01:45:23.106Z,93247.00
2023-02-19T01:48:01.956Z,93252.69
2023-02-19T01:50:32.465Z,93252.34
2023-02-19T01:53:04.225Z,93264.88
2023-02-19T01:55:31.812Z,93266.25
2023-02-19T01:58:00.236Z,93270.53
2023-02-19T02:00:26.907Z,93292.94
2023-02-19T02:02:55.994Z,93268.50
2023-02-19T02:05:59.107Z,93279.66
2023-02-19T02:08:45.170Z,93283.72
2023-02-19T02:11:12.576Z,93272.50
2023-02-19T02:13:40.458Z,93278.50
2023-02-19T02:16:14.092Z,93272.72
2023-02-19T02:18:58.323Z,93274.53
2023-02-19T02:21:57.115Z,93261.81
2023-02-19T02:24:54.542Z,93258.16
2023-02-19T02:27:38.148Z,93245.97
2023-02-19T02:30:21.087Z,93255.88
2023-02-19T02:32:59.552Z,93244.97
2023-02-19T02:35:32.755Z,93241.47
2023-02-19T02:38:04.807Z,93257.13
2023-02-19T02:40:32.107Z,93256.81
2023-02-19T02:43:00.671Z,93252.38
2023-02-19T02:45:35.145Z,93262.72
2023-02-19T02:48:20.402Z,93263.41
2023-02-19T02:50:56.105Z,93260.59
2023-02-19T02:53:53.654Z,93269.34
2023-02-19T02:56:21.064Z,93269.44
2023-02-19T02:58:50.172Z,93262.38
2023-02-19T03:01:42.876Z,93274.78
2023-02-19T03:04:23.935Z,93272.81
2023-02-19T03:06:51.919Z,93253.25
2023-02-19T03:09:30.038Z,93235.78
2023-02-19T03:12:20.865Z,93218.84
2023-02-19T03:15:09.850Z,93228.16
2023-02-19T03:18:03.233Z,93199.09
2023-02-19T03:20:33.842Z,93188.53
2023-02-19T03:23:01.986Z,93170.50
2023-02-19T03:25:52.653Z,93165.84
2023-02-19T03:28:50.637Z,93166.72
2023-02-19T03:31:20.930Z,93171.06
2023-02-19T03:33:51.943Z,93186.13
2023-02-19T03:36:25.598Z,93195.22
2023-02-19T03:38:59.510Z,93190.09
2023-02-19T03:41:48.091Z,93186.91
2023-02-19T03:44:37.240Z,93175.66
2023-02-19T03:47:20.249Z,93179.19
2023-02-19T03:49:58.633Z,93187.47
2023-02-19T03:52:54.472Z,93168.31
2023-02-19T03:55:36.077Z,93181.59
2023-02-19T03:58:13.093Z,93204.72
2023-02-19T04:01:18.515Z,93180.66
2023-02-19T04:03:54.107Z,93191.22
2023-02-19T04:06:27.731Z,93192.72
2023-02-19T04:08:58.149Z,93202.38
2023-02-19T04:11:26.262Z,93205.84
2023-02-19T04:14:19.135Z,93214.03
2023-02-19T04:16:49.805Z,93209.03
2023-02-19T04:19:20.653Z,93209.84
2023-02-19T04:21:47.643Z,93218.69
2023-02-19T04:24:22.365Z,93188.72
2023-02-19T04:26:49.120Z,93199.16
2023-02-19T04:29:15.534Z,93193.03
2023-02-19T04:31:42.000Z,93187.38
2023-02-19T04:34:08.436Z,93192.34
2023-02-19T04:36:34.869Z,93174.44
2023-02-19T04:39:01.280Z,93172.72
2023-02-19T04:41:27.724Z,93180.41
2023-02-19T04:43:54.166Z,93170.88
2023-02-19T04:46:20.689Z,93176.31
2023-02-19T04:48:47.233Z,93180.28
2023-02-19T04:51:13.723Z,93174.63
2023-02-19T04:53:40.169Z,93180.28
2023-02-19T04:56:08.309Z,93181.44
2023-02-19T04:58:35.202Z,93194.63
2023-02-19T05:01:01.676Z,93194.94
2023-02-19T05:03:28.106Z,93187.03
2023-02-19T05:05:54.542Z,93199.72
2023-02-19T05:08:21.088Z,93192.47
2023-02-19T05:10:47.487Z,93194.84
2023-02-19T05:13:13.962Z,93201.09
2023-02-19T05:15:40.364Z,93197.72
2023-02-19T05:18:06.766Z,93202.56
2023-02-19T05:20:33.166Z,93205.84
2023-02-19T05:22:59.582Z,93212.38
2023-02-19T05:25:25.964Z,93212.47
2023-02-19T05:28:12.329Z,93213.81
2023-02-19T05:30:38.709Z,93221.22
2023-02-19T05:33:05.130Z,93218.50
2023-02-19T05:35:31.571Z,93223.03
2023-02-19T05:37:57.978Z,93231.44
2023-02-19T05:40:24.400Z,93230.19
2023-02-19T05:42:50.797Z,93241.53
2023-02-19T05:45:17.183Z,93248.56
2023-02-19T05:47:43.581Z,93249.94
2023-02-19T05:50:10.041Z,93250.72
2023-02-19T05:52:36.466Z,93262.09
2023-02-19T05:55:02.976Z,93253.47
2023-02-19T05:57:29.376Z,93255.63
2023-02-19T05:59:56.485Z,93260.69
2023-02-19T06:02:22.979Z,93274.53
2023-02-19T06:04:49.449Z,93283.47
2023-02-19T06:07:15.841Z,93271.22
2023-02-19T06:09:42.213Z,93284.78
2023-02-19T06:12:08.663Z,93274.88
2023-02-19T06:14:35.054Z,93288.69
2023-02-19T06:17:01.457Z,93274.19
2023-02-19T06:19:27.847Z,93287.69
2023-02-19T06:21:54.269Z,93297.94
2023-02-19T06:24:20.711Z,93292.16
2023-02-19T06:26:47.122Z,93316.81
2023-02-19T06:29:13.528Z,93316.38
2023-02-19T06:31:40.098Z,93323.66
2023-02-19T06:34:06.622Z,93320.03
2023-02-19T06:36:33.389Z,93324.03
2023-02-19T06:39:00.691Z,93331.84
2023-02-19T06:41:27.077Z,93341.72
2023-02-19T06:43:53.778Z,93346.84
2023-02-19T06:46:20.295Z,93356.88
2023-02-19T06:48:46.783Z,93353.16
2023-02-19T06:51:19.330Z,93355.19
2023-02-19T06:53:46.202Z,93373.25
2023-02-19T06:56:29.026Z,93381.78
2023-02-19T06:58:59.743Z,93366.38
2023-02-19T07:01:27.711Z,93369.56
2023-02-19T07:03:54.403Z,93372.38
2023-02-19T07:06:25.299Z,93384.72
2023-02-19T07:08:52.896Z,93389.94
2023-02-19T07:11:19.414Z,93372.72
2023-02-19T07:13:45.898Z,93397.63
2023-02-19T07:16:13.092Z,93395.03
2023-02-19T07:18:40.506Z,93401.53
2023-02-19T07:21:12.986Z,93405.06
2023-02-19T07:23:40.210Z,93406.28
2023-02-19T07:26:14.185Z,93415.69
2023-02-19T07:28:42.132Z,93414.28
2023-02-19T07:31:09.361Z,93426.84
2023-02-19T07:33:36.328Z,93419.63
2023-02-19T07:36:02.859Z,93427.63
2023-02-19T07:38:29.322Z,93434.88
2023-02-19T07:40:58.515Z,93426.63
2023-02-19T07:43:26.658Z,93433.81
2023-02-19T07:45:53.154Z,93435.41
2023-02-19T07:48:20.182Z,93442.16
2023-02-19T07:50:57.938Z,93445.63
2023-02-19T07:53:25.708Z,93457.31
2023-02-19T07:55:52.247Z,93462.88
2023-02-19T07:58:18.739Z,93462.63
2023-02-19T08:00:45.336Z,93469.34
2023-02-19T08:03:12.043Z,93481.25
2023-02-19T08:05:43.043Z,93475.81
2023-02-19T08:08:11.998Z,93488.13
2023-02-19T08:10:56.989Z,93478.00
2023-02-19T08:13:24.216Z,93472.69
2023-02-19T08:16:16.076Z,93469.50
2023-02-19T08:18:44.336Z,93482.69
2023-02-19T08:21:11.610Z,93486.47
2023-02-19T08:23:38.643Z,93489.94
2023-02-19T08:26:05.663Z,93489.94
2023-02-19T08:28:32.466Z,93482.44
2023-02-19T08:31:02.127Z,93481.91
2023-02-19T08:33:29.049Z,93496.47
2023-02-19T08:35:55.506Z,93494.69
2023-02-19T08:38:22.418Z,93493.97
2023-02-19T08:40:48.823Z,93492.16
2023-02-19T08:43:16.930Z,93494.47
2023-02-19T08:45:45.012Z,93491.03
2023-02-19T08:48:11.812Z,93492.69
2023-02-19T08:50:38.771Z,93495.06
2023-02-19T08:53:06.461Z,93490.88
2023-02-19T08:55:33.888Z,93490.44
2023-02-19T08:58:00.774Z,93496.47
2023-02-19T09:00:27.419Z,93494.81
2023-02-19T09:02:53.903Z,93502.78
2023-02-19T09:05:20.302Z,93500.03
2023-02-19T09:07:46.883Z,93504.28
2023-02-19T09:10:14.166Z,93507.47
2023-02-19T09:12:41.330Z,93505.28
2023-02-19T09:15:08.312Z,93504.66
2023-02-19T09:17:34.795Z,93510.72
2023-02-19T09:20:01.244Z,93508.34
2023-02-19T09:22:27.683Z,93516.91
2023-02-19T09:24:54.114Z,93513.50
2023-02-19T09:27:20.812Z,93522.09
2023-02-19T09:29:47.456Z,93516.25
2023-02-19T09:32:14.497Z,93513.31
2023-02-19T09:34:41.077Z,93509.06
2023-02-19T09:37:08.091Z,93528.09
2023-02-19T09:39:35.376Z,93521.03
2023-02-19T09:42:10.639Z,93522.72
2023-02-19T09:44:40.189Z,93524.78
2023-02-19T09:47:15.406Z,93520.66
2023-02-19T09:49:49.849Z,93542.03
2023-02-19T09:52:19.039Z,93538.88
2023-02-19T09:54:46.768Z,93536.13
2023-02-19T09:57:19.084Z,93537.25
2023-02-19T09:59:52.056Z,93537.72
2023-02-19T10:02:21.832Z,93530.81
2023-02-19T10:04:51.184Z,93538.75
2023-02-19T10:07:45.393Z,93543.84
2023-02-19T10:10:14.763Z,93540.97
2023-02-19T10:12:46.671Z,93543.00
2023-02-19T10:15:22.408Z,93546.47
2023-02-19T10:17:48.841Z,93573.28
2023-02-19T10:20:18.953Z,93557.53
2023-02-19T10:22:45.783Z,93562.09
2023-02-19T10:25:18.078Z,93570.66
2023-02-19T10:27:44.602Z,93570.47
2023-02-19T10:30:20.627Z,93581.59
2023-02-19T10:33:11.003Z,93574.41
2023-02-19T10:35:53.319Z,93570.03
2023-02-19T10:38:23.603Z,93570.97
2023-02-19T10:40:57.858Z,93574.03
2023-02-19T10:43:33.087Z,93581.06
2023-02-19T10:46:03.264Z,93585.41
2023-02-19T10:48:32.834Z,93590.66
2023-02-19T10:51:04.889Z,93595.25
2023-02-19T10:53:42.988Z,93587.78
2023-02-19T10:56:23.904Z,93595.50
2023-02-19T10:58:50.913Z,93596.47
2023-02-19T11:01:22.942Z,93592.50
2023-02-19T11:03:52.157Z,93592.13
2023-02-19T11:06:22.007Z,93589.81
2023-02-19T11:08:53.006Z,93598.44
2023-02-19T11:11:30.626Z,93596.88
2023-02-19T11:13:58.422Z,93600.47
2023-02-19T11:16:39.465Z,93591.53
2023-02-19T11:19:06.268Z,93579.44
2023-02-19T11:21:33.438Z,93576.16
2023-02-19T11:24:04.624Z,93570.31
2023-02-19T11:26:38.029Z,93566.72
2023-02-19T11:29:22.509Z,93568.31
2023-02-19T11:31:49.333Z,93571.13
2023-02-19T11:34:20.931Z,93557.06
2023-02-19T11:37:07.534Z,93564.56
2023-02-19T11:39:34.570Z,93558.19
2023-02-19T11:42:24.166Z,93555.53
2023-02-19T11:45:07.771Z,93557.50
2023-02-19T11:47:59.122Z,93554.06
2023-02-19T11:50:28.406Z,93557.41
2023-02-19T11:53:16.548Z,93555.53
2023-02-19T11:56:20.819Z,93561.91
2023-02-19T11:59:28.842Z,93562.09
2023-02-19T12:02:13.775Z,93564.91
2023-02-19T12:05:38.790Z,93569.00
2023-02-19T12:08:41.167Z,93567.75
2023-02-19T12:11:44.717Z,93567.03
2023-02-19T12:14:45.759Z,93562.69
2023-02-19T12:17:33.948Z,93567.91
2023-02-19T12:20:09.914Z,93570.22
2023-02-19T12:22:52.686Z,93566.03
2023-02-19T12:25:41.819Z,93569.56
2023-02-19T12:28:23.474Z,93576.91
2023-02-19T12:31:14.130Z,93583.53
2023-02-19T12:33:43.449Z,93570.84
2023-02-19T12:36:28.430Z,93581.22
2023-02-19T12:39:07.588Z,93570.97
2023-02-19T12:41:49.038Z,93563.69
2023-02-19T12:44:34.622Z,93546.69
2023-02-19T12:47:06.461Z,93543.78
2023-02-19T12:49:37.042Z,93533.84
2023-02-19T12:52:09.385Z,93539.00
2023-02-19T12:54:41.789Z,93539.78
2023-02-19T12:57:10.962Z,93550.19
2023-02-19T12:59:43.884Z,93548.75
2023-02-19T13:02:10.243Z,93567.06
2023-02-19T13:04:49.848Z,93561.69
2023-02-19T13:07:38.688Z,93567.06
2023-02-19T13:10:11.089Z,93562.34
2023-02-19T13:12:41.519Z,93544.53
2023-02-19T13:15:18.480Z,93544.78
2023-02-19T13:17:51.316Z,93550.06
2023-02-19T13:20:28.184Z,93558.53
2023-02-19T13:23:27.340Z,93555.69
2023-02-19T13:26:31.190Z,93564.22
2023-02-19T13:29:09.912Z,93562.50
2023-02-19T13:31:54.628Z,93572.97
2023-02-19T13:35:02.169Z,93575.28
2023-02-19T13:37:33.177Z,93569.91
2023-02-19T13:40:06.613Z,93568.31
2023-02-19T13:42:35.886Z,93566.41
2023-02-19T13:45:05.439Z,93565.13
2023-02-19T13:47:53.752Z,93560.16
2023-02-19T13:50:23.133Z,93560.50
2023-02-19T13:52:51.061Z,93561.66
2023-02-19T13:55:42.629Z,93561.41
2023-02-19T13:58:33.784Z,93561.00
2023-02-19T14:01:11.705Z,93562.63
2023-02-19T14:03:54.105Z,93563.25
2023-02-19T14:06:21.441Z,93565.00
2023-02-19T14:09:00.162Z,93572.25
2023-02-19T14:11:41.844Z,93566.59
2023-02-19T14:14:41.636Z,93568.59
2023-02-19T14:17:17.583Z,93549.38
2023-02-19T14:19:53.329Z,93557.22
2023-02-19T14:22:44.980Z,93546.41
2023-02-19T14:25:34.065Z,93537.84
2023-02-19T14:28:04.246Z,93543.00
2023-02-19T14:30:34.594Z,93541.50
2023-02-19T14:33:10.700Z,93538.03
2023-02-19T14:35:42.310Z,93534.81
2023-02-19T14:38:18.020Z,93539.47
2023-02-19T14:40:47.039Z,93546.00
2023-02-19T14:43:16.800Z,93551.94
2023-02-19T14:46:07.529Z,93564.66
2023-02-19T14:48:39.555Z,93562.97
2023-02-19T14:51:22.095Z,93576.03
2023-02-19T14:53:49.620Z,93569.78
2023-02-19T14:56:26.336Z,93571.97
2023-02-19T14:59:21.903Z,93580.53
2023-02-19T15:01:55.925Z,93582.00
2023-02-19T15:04:28.810Z,93584.53
2023-02-19T15:06:57.052Z,93598.81
2023-02-19T15:09:31.860Z,93584.88
2023-02-19T15:11:59.113Z,93595.59
2023-02-19T15:14:28.594Z,93590.44
2023-02-19T15:17:00.064Z,93594.00
2023-02-19T15:19:26.797Z,93590.66
2023-02-19T15:21:55.014Z,93597.09
2023-02-19T15:24:21.816Z,93586.19
2023-02-19T15:26:51.624Z,93579.38
2023-02-19T15:29:23.494Z,93583.72
2023-02-19T15:31:56.055Z,93583.56
2023-02-19T15:34:28.241Z,93583.56
2023-02-19T15:37:01.653Z,93579.22
2023-02-19T15:39:38.095Z,93589.06
2023-02-19T15:42:07.447Z,93585.31
2023-02-19T15:44:56.925Z,93594.31
2023-02-19T15:48:08.569Z,93586.41
2023-02-19T15:50:41.075Z,93594.16
2023-02-19T15:53:14.438Z,93587.13
2023-02-19T15:56:07.521Z,93591.97
2023-02-19T15:59:13.311Z,93596.34
2023-02-19T16:01:40.209Z,93597.94
2023-02-19T16:04:12.863Z,93609.44
2023-02-19T16:06:53.243Z,93606.06
2023-02-19T16:09:23.083Z,93608.09
2023-02-19T16:11:55.220Z,93610.69
2023-02-19T16:14:39.673Z,93622.59
2023-02-19T16:17:16.534Z,93630.47
2023-02-19T16:19:42.885Z,93628.94
2023-02-19T16:22:15.942Z,93625.31
2023-02-19T16:24:45.505Z,93617.03
2023-02-19T16:27:14.117Z,93628.63
2023-02-19T16:29:40.955Z,93624.59
2023-02-19T16:32:16.750Z,93628.22
2023-02-19T16:34:50.475Z,93627.47
2023-02-19T16:37:37.715Z,93625.88
2023-02-19T16:40:07.198Z,93626.47
2023-02-19T16:42:58.047Z,93633.91
2023-02-19T16:45:27.106Z,93643.63
2023-02-19T16:47:53.917Z,93649.41
2023-02-19T16:50:23.094Z,93654.69
2023-02-19T16:53:03.912Z,93667.00
2023-02-19T16:55:37.490Z,93657.72
2023-02-19T16:58:03.906Z,93647.72
2023-02-19T17:00:31.353Z,93650.53
2023-02-19T17:03:01.643Z,93657.41
2023-02-19T17:05:30.820Z,93646.56
2023-02-19T17:07:57.237Z,93642.75
2023-02-19T17:10:26.533Z,93632.16
2023-02-19T17:12:54.436Z,93629.13
2023-02-19T17:15:21.720Z,93630.78
2023-02-19T17:17:48.236Z,93621.31
2023-02-19T17:20:17.429Z,93618.53
2023-02-19T17:22:44.195Z,93633.75
2023-02-19T17:25:10.622Z,93642.00
2023-02-19T17:27:37.058Z,93636.59
2023-02-19T17:30:09.943Z,93648.56
2023-02-19T17:32:36.418Z,93646.31
2023-02-19T17:35:02.903Z,93646.69
2023-02-19T17:37:29.314Z,93652.50
2023-02-19T17:39:55.750Z,93658.19
2023-02-19T17:42:23.413Z,93653.59
2023-02-19T17:44:51.774Z,93662.19
2023-02-19T17:47:19.196Z,93663.41
2023-02-19T17:49:45.663Z,93663.47
2023-02-19T17:52:13.551Z,93661.84
2023-02-19T17:54:39.954Z,93670.72
2023-02-19T17:57:06.361Z,93658.06
2023-02-19T17:59:32.755Z,93666.31
2023-02-19T18:01:59.189Z,93665.47
2023-02-19T18:04:25.589Z,93664.03
2023-02-19T18:06:53.839Z,93672.88
2023-02-19T18:09:22.262Z,93674.91
2023-02-19T18:11:49.284Z,93672.91
2023-02-19T18:14:15.680Z,93673.94
2023-02-19T18:16:49.818Z,93674.31
2023-02-19T18:19:16.816Z,93675.16
2023-02-19T18:21:43.225Z,93688.38
2023-02-19T18:24:09.627Z,93699.63
2023-02-19T18:26:36.023Z,93700.84
2023-02-19T18:29:02.578Z,93704.25
2023-02-19T18:31:32.421Z,93703.63
2023-02-19T18:33:58.887Z,93700.00
2023-02-19T18:36:25.304Z,93696.44
2023-02-19T18:38:51.716Z,93694.81
2023-02-19T18:41:20.834Z,93706.44
2023-02-19T18:43:48.312Z,93695.59
2023-02-19T18:46:15.060Z,93691.56
2023-02-19T18:48:41.562Z,93694.41
2023-02-19T18:51:11.466Z,93704.03
2023-02-19T18:53:38.064Z,93713.28
2023-02-19T18:56:05.383Z,93720.84
2023-02-19T18:58:31.798Z,93711.03
2023-02-19T19:00:59.381Z,93714.25
2023-02-19T19:03:25.960Z,93715.66
2023-02-19T19:05:52.617Z,93702.16
2023-02-19T19:08:19.046Z,93708.66
2023-02-19T19:10:45.461Z,93708.66
2023-02-19T19:13:11.875Z,93714.81
2023-02-19T19:15:41.145Z,93722.03
2023-02-19T19:18:08.763Z,93729.84
2023-02-19T19:20:35.196Z,93728.09
2023-02-19T19:23:01.631Z,93723.50
2023-02-19T19:25:28.033Z,93726.50
2023-02-19T19:27:56.311Z,93728.09
2023-02-19T19:30:23.094Z,93724.31
2023-02-19T19:32:50.344Z,93730.69
2023-02-19T19:35:21.203Z,93730.50
2023-02-19T19:37:48.073Z,93719.47
2023-02-19T19:40:17.244Z,93726.50
2023-02-19T19:42:44.661Z,93727.81
2023-02-19T19:45:11.921Z,93729.97
2023-02-19T19:47:38.389Z,93732.22
2023-02-19T19:50:05.132Z,93737.84
2023-02-19T19:52:31.554Z,93742.28
2023-02-19T19:54:58.277Z,93735.22
2023-02-19T19:57:24.704Z,93734.63
2023-02-19T19:59:51.399Z,93741.84
2023-02-19T20:02:18.281Z,93737.41
2023-02-19T20:04:44.877Z,93737.03
2023-02-19T20:07:11.310Z,93739.84
2023-02-19T20:09:37.720Z,93750.66
2023-02-19T20:12:04.941Z,93747.47
2023-02-19T20:14:31.364Z,93758.25
2023-02-19T20:16:58.235Z,93750.44
2023-02-19T20:19:24.730Z,93754.03
2023-02-19T20:21:53.053Z,93756.22
2023-02-19T20:24:24.106Z,93769.84
2023-02-19T20:26:52.743Z,93760.66
2023-02-19T20:29:19.514Z,93767.50
2023-02-19T20:31:50.708Z,93766.28
2023-02-19T20:34:18.240Z,93765.88
2023-02-19T20:36:46.992Z,93766.66
2023-02-19T20:39:14.847Z,93765.47
2023-02-19T20:41:48.660Z,93771.50
2023-02-19T20:44:15.602Z,93775.13
2023-02-19T20:46:47.058Z,93774.94
2023-02-19T20:49:14.752Z,93767.06
2023-02-19T20:51:46.754Z,93770.84
2023-02-19T20:54:13.545Z,93764.84
2023-02-19T20:56:48.037Z,93765.44
2023-02-19T20:59:16.151Z,93755.59
2023-02-19T21:01:43.407Z,93758.22
2023-02-19T21:04:10.481Z,93764.25
2023-02-19T21:06:37.010Z,93757.81
2023-02-19T21:09:04.694Z,93763.44
2023-02-19T21:11:31.728Z,93761.84
2023-02-19T21:13:59.265Z,93756.81
2023-02-19T21:16:27.282Z,93759.22
2023-02-19T21:18:53.836Z,93762.03
2023-02-19T21:21:24.986Z,93765.88
2023-02-19T21:23:56.648Z,93756.03
2023-02-19T21:26:24.072Z,93752.84
2023-02-19T21:28:51.720Z,93761.91
2023-02-19T21:31:18.518Z,93764.91
2023-02-19T21:33:45.244Z,93769.91
2023-02-19T21:36:12.076Z,93767.50
2023-02-19T21:38:38.733Z,93777.31
2023-02-19T21:41:05.231Z,93782.38
2023-02-19T21:43:31.727Z,93785.56
2023-02-19T21:45:58.265Z,93798.41
2023-02-19T21:48:24.718Z,93788.56
2023-02-19T21:50:51.137Z,93783.34
2023-02-19T21:53:17.739Z,93785.59
2023-02-19T21:55:57.460Z,93779.97
2023-02-19T21:58:25.434Z,93789.22
2023-02-19T22:00:53.797Z,93790.41
2023-02-19T22:03:20.347Z,93783.00
2023-02-19T22:05:46.778Z,93772.00
2023-02-19T22:08:15.511Z,93764.34
2023-02-19T22:10:42.485Z,93758.13
2023-02-19T22:13:09.982Z,93775.19
2023-02-19T22:15:36.730Z,93779.81
2023-02-19T22:18:03.269Z,93770.41
2023-02-19T22:20:29.669Z,93766.00
2023-02-19T22:22:56.144Z,93764.78
2023-02-19T22:25:22.586Z,93769.81
2023-02-19T22:27:49.073Z,93772.41
2023-02-19T22:30:16.082Z,93773.63
2023-02-19T22:32:42.679Z,93775.25
2023-02-19T22:35:09.188Z,93783.28
2023-02-19T22:37:35.632Z,93774.25
2023-02-19T22:40:02.062Z,93772.84
2023-02-19T22:42:29.313Z,93766.03
2023-02-19T22:44:55.930Z,93773.25
2023-02-19T22:47:22.388Z,93776.47
2023-02-19T22:49:48.813Z,93775.69
2023-02-19T22:52:15.318Z,93787.69
2023-02-19T22:54:41.751Z,93787.28
2023-02-19T22:57:08.184Z,93798.53
2023-02-19T22:59:34.638Z,93788.50
2023-02-19T23:02:01.131Z,93803.13
2023-02-19T23:04:27.573Z,93808.53
2023-02-19T23:06:54.268Z,93810.53
2023-02-19T23:09:26.503Z,93814.13
2023-02-19T23:12:00.605Z,93812.94
2023-02-19T23:14:27.025Z,93816.72
2023-02-19T23:16:53.481Z,93807.72
2023-02-19T23:19:19.978Z,93812.53
2023-02-19T23:21:46.922Z,93802.69
2023-02-19T23:24:14.207Z,93798.47
2023-02-19T23:26:45.797Z,93802.09
2023-02-19T23:29:16.263Z,93798.47
2023-02-19T23:31:42.873Z,93801.09
2023-02-19T23:34:09.573Z,93798.88
2023-02-19T23:36:44.064Z,93800.91
2023-02-19T23:39:12.590Z,93808.72
2023-02-19T23:41:39.059Z,93814.13
2023-02-19T23:44:05.720Z,93803.88
2023-02-19T23:46:33.813Z,93800.69
2023-02-19T23:49:00.200Z,93804.91
2023-02-19T23:51:26.635Z,93813.94
2023-02-19T23:53:53.046Z,93809.09
2023-02-19T23:56:24.891Z,93821.75
2023-02-19T23:58:51.353Z,93821.75
